MET'MAP v2.0
soon released !

Expected late october,
this new version will be
more efficient, smarter,
and hosted on a brand new
server x3 powerfull...
...and still free !


Not compatible ?
Try the mobile version !

LOG IN : | Subscribe | Disclaimer | Who is Orbifly ? |
ICAO code :

TAF - HLLM Mitiga - 28 Feb 2020 01:33 UTC - Data Source NOAA   


- Airport Elevation : 36 ft
- IATA code : MJI
- No reported NOTAMs.


HLLM - Mitiga

Latest METAR recorded : 2015/08/11 07:50 HLLM 110750Z 20008KT 8000 FEW030 BKN100 29/16 Q1013
TAF TAF HLLM
Valid from the 28 at 00:00 until the 29 at 00:00 UTC


272300Z 2800/2824 VRB02KT 8000 NSC
BECMG 2813/2815 32012KT

Source NOAA


MET'MAP, your aeronautical weather chart ! - Copyright ORBIFLY December 2007

Programming & Development : Alexandra Zaïnal
Co-Developer : Marc-Olivier Méhu
Technical & hardware support : Manuel Goepfert
Concept & Financing : Baudouin d'Aumeries